sensor_id;sensor_type;location;lat;lon;timestamp;P1;durP1;ratioP1;P2;durP2;ratioP2
14209;SDS011;7188;56.070;12.698;2024-02-21T00:01:35;37.60;;;10.00;;
14209;SDS011;7188;56.070;12.698;2024-02-21T00:04:01;36.10;;;10.73;;
14209;SDS011;7188;56.070;12.698;2024-02-21T00:06:27;42.20;;;11.20;;
14209;SDS011;7188;56.070;12.698;2024-02-21T00:08:53;40.97;;;11.43;;
14209;SDS011;7188;56.070;12.698;2024-02-21T00:11:18;37.30;;;11.70;;
14209;SDS011;7188;56.070;12.698;2024-02-21T00:13:44;34.20;;;12.33;;
14209;SDS011;7188;56.070;12.698;2024-02-21T00:16:09;38.47;;;12.20;;
14209;SDS011;7188;56.070;12.698;2024-02-21T00:21:33;38.57;;;11.23;;
14209;SDS011;7188;56.070;12.698;2024-02-21T00:23:58;36.37;;;12.00;;
14209;SDS011;7188;56.070;12.698;2024-02-21T00:26:24;41.10;;;12.27;;
14209;SDS011;7188;56.070;12.698;2024-02-21T00:28:50;35.83;;;13.13;;
14209;SDS011;7188;56.070;12.698;2024-02-21T00:31:16;38.40;;;14.03;;
14209;SDS011;7188;56.070;12.698;2024-02-21T00:33:42;45.23;;;14.57;;
14209;SDS011;7188;56.070;12.698;2024-02-21T00:36:07;42.00;;;13.63;;
14209;SDS011;7188;56.070;12.698;2024-02-21T00:38:33;47.27;;;15.40;;
14209;SDS011;7188;56.070;12.698;2024-02-21T00:40:59;35.47;;;14.93;;
14209;SDS011;7188;56.070;12.698;2024-02-21T00:43:24;38.30;;;16.03;;
14209;SDS011;7188;56.070;12.698;2024-02-21T00:45:50;41.33;;;14.60;;
14209;SDS011;7188;56.070;12.698;2024-02-21T00:48:16;42.50;;;15.00;;
14209;SDS011;7188;56.070;12.698;2024-02-21T00:50:41;43.50;;;15.50;;
14209;SDS011;7188;56.070;12.698;2024-02-21T00:53:07;36.03;;;16.23;;
14209;SDS011;7188;56.070;12.698;2024-02-21T00:55:32;38.80;;;14.33;;
14209;SDS011;7188;56.070;12.698;2024-02-21T00:57:59;45.33;;;15.60;;
14209;SDS011;7188;56.070;12.698;2024-02-21T01:00:24;34.33;;;15.60;;
14209;SDS011;7188;56.070;12.698;2024-02-21T01:02:50;38.03;;;15.83;;
14209;SDS011;7188;56.070;12.698;2024-02-21T01:05:15;37.97;;;15.23;;
14209;SDS011;7188;56.070;12.698;2024-02-21T01:07:41;41.40;;;17.10;;
14209;SDS011;7188;56.070;12.698;2024-02-21T01:10:07;42.53;;;16.80;;
14209;SDS011;7188;56.070;12.698;2024-02-21T01:12:33;38.70;;;17.13;;
14209;SDS011;7188;56.070;12.698;2024-02-21T01:14:58;31.70;;;16.00;;
14209;SDS011;7188;56.070;12.698;2024-02-21T01:17:24;43.10;;;15.90;;
14209;SDS011;7188;56.070;12.698;2024-02-21T01:19:50;31.77;;;14.77;;
14209;SDS011;7188;56.070;12.698;2024-02-21T01:22:15;38.13;;;16.40;;
14209;SDS011;7188;56.070;12.698;2024-02-21T01:24:41;33.27;;;17.17;;
14209;SDS011;7188;56.070;12.698;2024-02-21T01:27:07;35.83;;;15.67;;
14209;SDS011;7188;56.070;12.698;2024-02-21T01:29:33;32.80;;;15.23;;
14209;SDS011;7188;56.070;12.698;2024-02-21T01:31:58;30.13;;;14.30;;
14209;SDS011;7188;56.070;12.698;2024-02-21T01:34:24;32.67;;;15.27;;
14209;SDS011;7188;56.070;12.698;2024-02-21T01:36:49;37.70;;;16.00;;
14209;SDS011;7188;56.070;12.698;2024-02-21T01:39:15;27.30;;;14.93;;
14209;SDS011;7188;56.070;12.698;2024-02-21T01:41:41;34.17;;;16.13;;
14209;SDS011;7188;56.070;12.698;2024-02-21T01:44:06;38.97;;;15.50;;
14209;SDS011;7188;56.070;12.698;2024-02-21T01:46:32;30.40;;;16.07;;
14209;SDS011;7188;56.070;12.698;2024-02-21T01:48:58;26.33;;;14.77;;
14209;SDS011;7188;56.070;12.698;2024-02-21T01:51:25;24.50;;;12.57;;
14209;SDS011;7188;56.070;12.698;2024-02-21T01:53:50;30.97;;;14.83;;
14209;SDS011;7188;56.070;12.698;2024-02-21T01:56:18;31.60;;;14.10;;
14209;SDS011;7188;56.070;12.698;2024-02-21T01:58:44;28.63;;;14.17;;
14209;SDS011;7188;56.070;12.698;2024-02-21T02:01:11;26.70;;;13.73;;
14209;SDS011;7188;56.070;12.698;2024-02-21T02:03:37;25.50;;;13.97;;
14209;SDS011;7188;56.070;12.698;2024-02-21T02:06:04;25.03;;;13.43;;
14209;SDS011;7188;56.070;12.698;2024-02-21T02:08:34;28.47;;;13.87;;
14209;SDS011;7188;56.070;12.698;2024-02-21T02:11:00;27.53;;;13.97;;
14209;SDS011;7188;56.070;12.698;2024-02-21T02:13:26;23.53;;;12.30;;
14209;SDS011;7188;56.070;12.698;2024-02-21T02:15:52;22.53;;;12.77;;
14209;SDS011;7188;56.070;12.698;2024-02-21T02:18:19;29.97;;;11.53;;
14209;SDS011;7188;56.070;12.698;2024-02-21T02:20:45;20.00;;;11.63;;
14209;SDS011;7188;56.070;12.698;2024-02-21T02:25:44;21.90;;;11.87;;
14209;SDS011;7188;56.070;12.698;2024-02-21T02:28:14;23.17;;;11.83;;
14209;SDS011;7188;56.070;12.698;2024-02-21T02:30:40;20.13;;;11.27;;
14209;SDS011;7188;56.070;12.698;2024-02-21T02:33:05;24.30;;;11.20;;
14209;SDS011;7188;56.070;12.698;2024-02-21T02:35:31;14.23;;;10.77;;
14209;SDS011;7188;56.070;12.698;2024-02-21T02:37:57;19.80;;;12.07;;
14209;SDS011;7188;56.070;12.698;2024-02-21T02:40:23;18.93;;;9.93;;
14209;SDS011;7188;56.070;12.698;2024-02-21T02:42:49;18.37;;;11.10;;
14209;SDS011;7188;56.070;12.698;2024-02-21T02:45:16;16.20;;;10.30;;
14209;SDS011;7188;56.070;12.698;2024-02-21T02:47:44;18.23;;;10.67;;
14209;SDS011;7188;56.070;12.698;2024-02-21T02:50:11;19.67;;;9.93;;
14209;SDS011;7188;56.070;12.698;2024-02-21T02:52:37;14.07;;;9.43;;
14209;SDS011;7188;56.070;12.698;2024-02-21T02:55:12;14.43;;;10.07;;
14209;SDS011;7188;56.070;12.698;2024-02-21T03:01:06;15.00;;;10.17;;
14209;SDS011;7188;56.070;12.698;2024-02-21T03:06:57;17.33;;;9.50;;
14209;SDS011;7188;56.070;12.698;2024-02-21T03:09:41;17.30;;;9.93;;
14209;SDS011;7188;56.070;12.698;2024-02-21T03:21:29;17.90;;;11.13;;
14209;SDS011;7188;56.070;12.698;2024-02-21T03:24:04;23.07;;;11.47;;
14209;SDS011;7188;56.070;12.698;2024-02-21T03:26:33;21.43;;;11.30;;
14209;SDS011;7188;56.070;12.698;2024-02-21T03:32:20;24.67;;;12.90;;
14209;SDS011;7188;56.070;12.698;2024-02-21T03:34:49;21.93;;;12.17;;
14209;SDS011;7188;56.070;12.698;2024-02-21T03:37:18;23.10;;;12.27;;
14209;SDS011;7188;56.070;12.698;2024-02-21T03:43:08;24.73;;;13.23;;
14209;SDS011;7188;56.070;12.698;2024-02-21T03:45:34;20.93;;;12.37;;
14209;SDS011;7188;56.070;12.698;2024-02-21T03:48:00;20.07;;;12.73;;
14209;SDS011;7188;56.070;12.698;2024-02-21T03:50:29;27.47;;;12.43;;
14209;SDS011;7188;56.070;12.698;2024-02-21T03:53:00;22.73;;;12.03;;
14209;SDS011;7188;56.070;12.698;2024-02-21T03:55:28;28.70;;;13.37;;
14209;SDS011;7188;56.070;12.698;2024-02-21T03:57:56;25.73;;;12.97;;
14209;SDS011;7188;56.070;12.698;2024-02-21T04:00:37;23.33;;;12.57;;
14209;SDS011;7188;56.070;12.698;2024-02-21T04:09:33;27.87;;;12.50;;
14209;SDS011;7188;56.070;12.698;2024-02-21T04:18:49;17.97;;;10.87;;
14209;SDS011;7188;56.070;12.698;2024-02-21T04:21:23;22.07;;;10.73;;
14209;SDS011;7188;56.070;12.698;2024-02-21T04:23:53;17.23;;;9.40;;
14209;SDS011;7188;56.070;12.698;2024-02-21T04:26:18;19.87;;;9.27;;
14209;SDS011;7188;56.070;12.698;2024-02-21T04:37:40;10.50;;;5.97;;
14209;SDS011;7188;56.070;12.698;2024-02-21T04:42:51;11.03;;;3.57;;
14209;SDS011;7188;56.070;12.698;2024-02-21T04:45:19;6.30;;;3.33;;
14209;SDS011;7188;56.070;12.698;2024-02-21T04:47:45;2.27;;;2.00;;
14209;SDS011;7188;56.070;12.698;2024-02-21T04:50:14;3.40;;;1.97;;
14209;SDS011;7188;56.070;12.698;2024-02-21T04:52:40;5.07;;;1.83;;
14209;SDS011;7188;56.070;12.698;2024-02-21T04:55:06;4.10;;;1.47;;
14209;SDS011;7188;56.070;12.698;2024-02-21T05:00:59;1.80;;;1.03;;
14209;SDS011;7188;56.070;12.698;2024-02-21T05:03:28;3.43;;;1.00;;
14209;SDS011;7188;56.070;12.698;2024-02-21T05:06:03;3.90;;;1.00;;
14209;SDS011;7188;56.070;12.698;2024-02-21T05:08:37;2.43;;;1.07;;
14209;SDS011;7188;56.070;12.698;2024-02-21T05:11:06;1.10;;;1.00;;
14209;SDS011;7188;56.070;12.698;2024-02-21T05:16:49;2.10;;;1.10;;
14209;SDS011;7188;56.070;12.698;2024-02-21T05:19:14;2.17;;;0.93;;
14209;SDS011;7188;56.070;12.698;2024-02-21T05:24:40;1.40;;;0.93;;
14209;SDS011;7188;56.070;12.698;2024-02-21T05:27:06;3.00;;;0.90;;
14209;SDS011;7188;56.070;12.698;2024-02-21T05:29:32;3.47;;;0.87;;
14209;SDS011;7188;56.070;12.698;2024-02-21T05:33:10;2.60;;;0.97;;
14209;SDS011;7188;56.070;12.698;2024-02-21T05:35:49;2.70;;;1.03;;
14209;SDS011;7188;56.070;12.698;2024-02-21T05:38:18;4.17;;;0.70;;
14209;SDS011;7188;56.070;12.698;2024-02-21T05:40:46;2.27;;;0.83;;
14209;SDS011;7188;56.070;12.698;2024-02-21T05:46:22;2.87;;;0.80;;
14209;SDS011;7188;56.070;12.698;2024-02-21T05:48:47;4.80;;;1.00;;
14209;SDS011;7188;56.070;12.698;2024-02-21T05:51:13;7.33;;;1.57;;
14209;SDS011;7188;56.070;12.698;2024-02-21T05:53:38;4.40;;;0.90;;
14209;SDS011;7188;56.070;12.698;2024-02-21T05:56:17;4.87;;;0.97;;
14209;SDS011;7188;56.070;12.698;2024-02-21T06:02:16;2.67;;;1.00;;
14209;SDS011;7188;56.070;12.698;2024-02-21T06:04:54;1.37;;;0.70;;
14209;SDS011;7188;56.070;12.698;2024-02-21T06:07:20;2.80;;;0.73;;
14209;SDS011;7188;56.070;12.698;2024-02-21T06:09:45;4.10;;;0.90;;
14209;SDS011;7188;56.070;12.698;2024-02-21T06:12:14;3.03;;;1.17;;
14209;SDS011;7188;56.070;12.698;2024-02-21T06:18:01;7.70;;;1.40;;
14209;SDS011;7188;56.070;12.698;2024-02-21T06:20:30;4.30;;;1.00;;
14209;SDS011;7188;56.070;12.698;2024-02-21T06:23:12;7.43;;;1.20;;
14209;SDS011;7188;56.070;12.698;2024-02-21T06:25:38;8.43;;;1.43;;
14209;SDS011;7188;56.070;12.698;2024-02-21T06:31:04;8.67;;;1.10;;
14209;SDS011;7188;56.070;12.698;2024-02-21T06:40:13;7.83;;;1.47;;
14209;SDS011;7188;56.070;12.698;2024-02-21T06:42:39;7.30;;;1.30;;
14209;SDS011;7188;56.070;12.698;2024-02-21T06:45:08;6.83;;;1.37;;
14209;SDS011;7188;56.070;12.698;2024-02-21T06:50:56;6.17;;;1.40;;
14209;SDS011;7188;56.070;12.698;2024-02-21T06:53:21;10.03;;;1.40;;
14209;SDS011;7188;56.070;12.698;2024-02-21T06:55:59;7.73;;;1.20;;
14209;SDS011;7188;56.070;12.698;2024-02-21T06:58:43;9.03;;;1.57;;
14209;SDS011;7188;56.070;12.698;2024-02-21T07:04:22;7.90;;;1.97;;
14209;SDS011;7188;56.070;12.698;2024-02-21T07:06:58;9.47;;;1.80;;
14209;SDS011;7188;56.070;12.698;2024-02-21T07:09:24;9.13;;;1.87;;
14209;SDS011;7188;56.070;12.698;2024-02-21T07:11:56;14.90;;;2.23;;
14209;SDS011;7188;56.070;12.698;2024-02-21T07:14:29;6.67;;;1.77;;
14209;SDS011;7188;56.070;12.698;2024-02-21T07:20:09;11.00;;;1.90;;
14209;SDS011;7188;56.070;12.698;2024-02-21T07:30:19;6.93;;;1.83;;
14209;SDS011;7188;56.070;12.698;2024-02-21T07:45:13;13.50;;;2.00;;
14209;SDS011;7188;56.070;12.698;2024-02-21T07:47:38;12.83;;;1.90;;
14209;SDS011;7188;56.070;12.698;2024-02-21T07:53:26;9.23;;;2.10;;
14209;SDS011;7188;56.070;12.698;2024-02-21T07:59:17;11.90;;;2.13;;
14209;SDS011;7188;56.070;12.698;2024-02-21T08:04:49;9.70;;;1.90;;
14209;SDS011;7188;56.070;12.698;2024-02-21T08:13:37;6.60;;;1.57;;
14209;SDS011;7188;56.070;12.698;2024-02-21T08:16:02;10.73;;;1.70;;
14209;SDS011;7188;56.070;12.698;2024-02-21T08:18:28;7.73;;;1.30;;
14209;SDS011;7188;56.070;12.698;2024-02-21T08:20:54;8.00;;;1.37;;
14209;SDS011;7188;56.070;12.698;2024-02-21T08:23:23;8.23;;;0.90;;
14209;SDS011;7188;56.070;12.698;2024-02-21T08:28:43;7.47;;;1.00;;
14209;SDS011;7188;56.070;12.698;2024-02-21T08:34:03;10.73;;;1.50;;
14209;SDS011;7188;56.070;12.698;2024-02-21T08:36:33;9.07;;;1.77;;
14209;SDS011;7188;56.070;12.698;2024-02-21T08:42:35;7.93;;;1.73;;
14209;SDS011;7188;56.070;12.698;2024-02-21T08:45:07;9.43;;;2.30;;
14209;SDS011;7188;56.070;12.698;2024-02-21T08:50:59;8.77;;;1.50;;
14209;SDS011;7188;56.070;12.698;2024-02-21T08:53:24;5.70;;;0.90;;
14209;SDS011;7188;56.070;12.698;2024-02-21T08:56:14;6.23;;;0.90;;
14209;SDS011;7188;56.070;12.698;2024-02-21T08:58:41;5.10;;;1.47;;
14209;SDS011;7188;56.070;12.698;2024-02-21T09:01:10;5.57;;;0.60;;
14209;SDS011;7188;56.070;12.698;2024-02-21T09:07:09;4.40;;;0.70;;
14209;SDS011;7188;56.070;12.698;2024-02-21T09:09:53;5.67;;;1.03;;
14209;SDS011;7188;56.070;12.698;2024-02-21T09:15:23;4.70;;;0.63;;
14209;SDS011;7188;56.070;12.698;2024-02-21T09:17:57;7.40;;;1.00;;
14209;SDS011;7188;56.070;12.698;2024-02-21T09:20:23;5.17;;;1.03;;
14209;SDS011;7188;56.070;12.698;2024-02-21T09:22:48;6.63;;;1.33;;
14209;SDS011;7188;56.070;12.698;2024-02-21T09:25:14;11.10;;;1.93;;
14209;SDS011;7188;56.070;12.698;2024-02-21T09:27:40;8.87;;;1.57;;
14209;SDS011;7188;56.070;12.698;2024-02-21T09:30:06;10.83;;;1.70;;
14209;SDS011;7188;56.070;12.698;2024-02-21T09:32:32;11.30;;;2.17;;
14209;SDS011;7188;56.070;12.698;2024-02-21T09:34:58;10.37;;;1.47;;
14209;SDS011;7188;56.070;12.698;2024-02-21T09:37:23;14.33;;;2.17;;
14209;SDS011;7188;56.070;12.698;2024-02-21T09:39:49;14.10;;;2.07;;
14209;SDS011;7188;56.070;12.698;2024-02-21T09:42:18;12.00;;;2.37;;
14209;SDS011;7188;56.070;12.698;2024-02-21T09:44:46;11.23;;;2.50;;
14209;SDS011;7188;56.070;12.698;2024-02-21T09:49:43;16.97;;;2.80;;
14209;SDS011;7188;56.070;12.698;2024-02-21T09:52:09;16.53;;;2.47;;
14209;SDS011;7188;56.070;12.698;2024-02-21T09:54:38;16.43;;;2.20;;
14209;SDS011;7188;56.070;12.698;2024-02-21T09:57:07;15.17;;;2.30;;
14209;SDS011;7188;56.070;12.698;2024-02-21T09:59:33;16.23;;;2.90;;
14209;SDS011;7188;56.070;12.698;2024-02-21T10:01:59;11.80;;;2.77;;
14209;SDS011;7188;56.070;12.698;2024-02-21T10:04:25;19.10;;;3.80;;
14209;SDS011;7188;56.070;12.698;2024-02-21T10:06:51;19.70;;;3.17;;
14209;SDS011;7188;56.070;12.698;2024-02-21T10:09:27;13.63;;;1.70;;
14209;SDS011;7188;56.070;12.698;2024-02-21T10:11:54;12.30;;;2.13;;
14209;SDS011;7188;56.070;12.698;2024-02-21T10:14:20;16.53;;;2.47;;
14209;SDS011;7188;56.070;12.698;2024-02-21T10:16:56;13.70;;;2.40;;
14209;SDS011;7188;56.070;12.698;2024-02-21T10:19:25;11.57;;;2.40;;
14209;SDS011;7188;56.070;12.698;2024-02-21T10:22:04;20.43;;;3.40;;
14209;SDS011;7188;56.070;12.698;2024-02-21T10:24:32;11.77;;;1.80;;
14209;SDS011;7188;56.070;12.698;2024-02-21T10:27:03;10.60;;;1.77;;
14209;SDS011;7188;56.070;12.698;2024-02-21T10:29:33;10.43;;;2.00;;
14209;SDS011;7188;56.070;12.698;2024-02-21T10:32:05;19.03;;;2.70;;
14209;SDS011;7188;56.070;12.698;2024-02-21T10:34:32;18.33;;;1.97;;
14209;SDS011;7188;56.070;12.698;2024-02-21T10:37:03;7.40;;;1.77;;
14209;SDS011;7188;56.070;12.698;2024-02-21T10:39:34;12.93;;;2.70;;
14209;SDS011;7188;56.070;12.698;2024-02-21T10:42:02;10.97;;;1.70;;
14209;SDS011;7188;56.070;12.698;2024-02-21T10:44:32;10.10;;;1.73;;
14209;SDS011;7188;56.070;12.698;2024-02-21T10:46:59;8.27;;;1.57;;
14209;SDS011;7188;56.070;12.698;2024-02-21T10:49:27;14.87;;;2.27;;
14209;SDS011;7188;56.070;12.698;2024-02-21T10:52:03;13.07;;;2.07;;
14209;SDS011;7188;56.070;12.698;2024-02-21T10:54:39;13.50;;;2.13;;
14209;SDS011;7188;56.070;12.698;2024-02-21T10:57:10;15.97;;;2.10;;
14209;SDS011;7188;56.070;12.698;2024-02-21T10:59:38;10.00;;;1.70;;
14209;SDS011;7188;56.070;12.698;2024-02-21T11:02:05;14.77;;;2.30;;
14209;SDS011;7188;56.070;12.698;2024-02-21T11:04:32;9.23;;;1.57;;
14209;SDS011;7188;56.070;12.698;2024-02-21T11:07:03;11.43;;;1.80;;
14209;SDS011;7188;56.070;12.698;2024-02-21T11:09:30;11.13;;;2.10;;
14209;SDS011;7188;56.070;12.698;2024-02-21T11:11:57;6.70;;;1.83;;
14209;SDS011;7188;56.070;12.698;2024-02-21T11:14:26;13.57;;;2.03;;
14209;SDS011;7188;56.070;12.698;2024-02-21T11:16:53;11.33;;;1.60;;
14209;SDS011;7188;56.070;12.698;2024-02-21T11:19:19;9.03;;;1.10;;
14209;SDS011;7188;56.070;12.698;2024-02-21T11:21:45;12.87;;;1.80;;
14209;SDS011;7188;56.070;12.698;2024-02-21T11:24:11;12.47;;;1.90;;
14209;SDS011;7188;56.070;12.698;2024-02-21T11:26:37;13.73;;;2.20;;
14209;SDS011;7188;56.070;12.698;2024-02-21T11:29:03;12.87;;;1.87;;
14209;SDS011;7188;56.070;12.698;2024-02-21T11:31:44;14.00;;;2.20;;
14209;SDS011;7188;56.070;12.698;2024-02-21T11:34:16;16.57;;;1.80;;
14209;SDS011;7188;56.070;12.698;2024-02-21T11:36:50;11.97;;;2.07;;
14209;SDS011;7188;56.070;12.698;2024-02-21T11:39:21;13.20;;;2.03;;
14209;SDS011;7188;56.070;12.698;2024-02-21T11:42:06;10.60;;;1.40;;
14209;SDS011;7188;56.070;12.698;2024-02-21T11:44:33;10.40;;;2.07;;
14209;SDS011;7188;56.070;12.698;2024-02-21T11:47:03;11.07;;;1.93;;
14209;SDS011;7188;56.070;12.698;2024-02-21T11:49:29;10.90;;;1.90;;
14209;SDS011;7188;56.070;12.698;2024-02-21T11:51:58;14.10;;;2.67;;
14209;SDS011;7188;56.070;12.698;2024-02-21T11:54:26;10.60;;;1.67;;
14209;SDS011;7188;56.070;12.698;2024-02-21T11:56:54;15.43;;;1.77;;
14209;SDS011;7188;56.070;12.698;2024-02-21T11:59:20;9.90;;;1.77;;
14209;SDS011;7188;56.070;12.698;2024-02-21T12:01:46;11.63;;;1.97;;
14209;SDS011;7188;56.070;12.698;2024-02-21T12:04:13;11.97;;;2.10;;
14209;SDS011;7188;56.070;12.698;2024-02-21T12:06:42;5.03;;;1.03;;
14209;SDS011;7188;56.070;12.698;2024-02-21T12:09:08;7.77;;;1.30;;
14209;SDS011;7188;56.070;12.698;2024-02-21T12:11:34;10.50;;;1.77;;
14209;SDS011;7188;56.070;12.698;2024-02-21T12:14:00;6.07;;;1.50;;
14209;SDS011;7188;56.070;12.698;2024-02-21T12:16:30;10.87;;;1.47;;
14209;SDS011;7188;56.070;12.698;2024-02-21T12:18:57;7.70;;;2.43;;
14209;SDS011;7188;56.070;12.698;2024-02-21T12:21:26;14.20;;;1.80;;
14209;SDS011;7188;56.070;12.698;2024-02-21T12:23:55;7.03;;;1.43;;
14209;SDS011;7188;56.070;12.698;2024-02-21T12:26:21;8.40;;;1.87;;
14209;SDS011;7188;56.070;12.698;2024-02-21T12:28:47;6.13;;;1.27;;
14209;SDS011;7188;56.070;12.698;2024-02-21T12:31:13;6.37;;;1.47;;
14209;SDS011;7188;56.070;12.698;2024-02-21T12:33:39;10.17;;;1.20;;
14209;SDS011;7188;56.070;12.698;2024-02-21T12:36:05;6.30;;;1.77;;
14209;SDS011;7188;56.070;12.698;2024-02-21T12:38:34;10.90;;;1.90;;
14209;SDS011;7188;56.070;12.698;2024-02-21T12:41:01;5.60;;;1.67;;
14209;SDS011;7188;56.070;12.698;2024-02-21T12:43:27;9.33;;;1.23;;
14209;SDS011;7188;56.070;12.698;2024-02-21T12:45:52;12.27;;;1.60;;
14209;SDS011;7188;56.070;12.698;2024-02-21T12:48:18;4.83;;;1.30;;
14209;SDS011;7188;56.070;12.698;2024-02-21T12:50:50;7.03;;;1.53;;
14209;SDS011;7188;56.070;12.698;2024-02-21T12:53:17;6.43;;;1.20;;
14209;SDS011;7188;56.070;12.698;2024-02-21T12:55:46;9.20;;;1.70;;
14209;SDS011;7188;56.070;12.698;2024-02-21T12:58:15;11.20;;;1.40;;
14209;SDS011;7188;56.070;12.698;2024-02-21T13:00:41;9.53;;;1.53;;
14209;SDS011;7188;56.070;12.698;2024-02-21T13:03:07;5.00;;;1.43;;
14209;SDS011;7188;56.070;12.698;2024-02-21T13:05:34;4.50;;;1.00;;
14209;SDS011;7188;56.070;12.698;2024-02-21T13:08:01;5.73;;;1.50;;
14209;SDS011;7188;56.070;12.698;2024-02-21T13:10:26;7.30;;;1.30;;
14209;SDS011;7188;56.070;12.698;2024-02-21T13:12:52;7.07;;;1.50;;
14209;SDS011;7188;56.070;12.698;2024-02-21T13:15:18;7.77;;;1.33;;
14209;SDS011;7188;56.070;12.698;2024-02-21T13:17:44;5.37;;;1.17;;
14209;SDS011;7188;56.070;12.698;2024-02-21T13:20:10;9.70;;;1.20;;
14209;SDS011;7188;56.070;12.698;2024-02-21T13:22:37;5.83;;;1.50;;
14209;SDS011;7188;56.070;12.698;2024-02-21T13:25:03;13.47;;;1.53;;
14209;SDS011;7188;56.070;12.698;2024-02-21T13:30:14;5.70;;;1.37;;
14209;SDS011;7188;56.070;12.698;2024-02-21T13:32:41;8.50;;;1.50;;
14209;SDS011;7188;56.070;12.698;2024-02-21T13:35:07;5.83;;;1.10;;
14209;SDS011;7188;56.070;12.698;2024-02-21T13:40:21;4.67;;;0.83;;
14209;SDS011;7188;56.070;12.698;2024-02-21T13:42:47;7.67;;;1.70;;
14209;SDS011;7188;56.070;12.698;2024-02-21T13:45:14;6.60;;;1.23;;
14209;SDS011;7188;56.070;12.698;2024-02-21T13:47:39;6.90;;;0.90;;
14209;SDS011;7188;56.070;12.698;2024-02-21T13:50:05;9.23;;;1.27;;
14209;SDS011;7188;56.070;12.698;2024-02-21T13:52:35;6.47;;;0.90;;
14209;SDS011;7188;56.070;12.698;2024-02-21T13:55:01;4.97;;;1.63;;
14209;SDS011;7188;56.070;12.698;2024-02-21T13:57:27;8.43;;;1.40;;
14209;SDS011;7188;56.070;12.698;2024-02-21T13:59:53;5.67;;;1.07;;
14209;SDS011;7188;56.070;12.698;2024-02-21T14:02:19;10.00;;;1.97;;
14209;SDS011;7188;56.070;12.698;2024-02-21T14:04:46;6.60;;;1.33;;
14209;SDS011;7188;56.070;12.698;2024-02-21T14:07:12;8.57;;;1.93;;
14209;SDS011;7188;56.070;12.698;2024-02-21T14:09:37;6.27;;;1.17;;
14209;SDS011;7188;56.070;12.698;2024-02-21T14:12:03;7.67;;;1.30;;
14209;SDS011;7188;56.070;12.698;2024-02-21T14:14:33;8.53;;;1.73;;
14209;SDS011;7188;56.070;12.698;2024-02-21T14:17:02;8.00;;;1.60;;
14209;SDS011;7188;56.070;12.698;2024-02-21T14:19:28;8.20;;;1.70;;
14209;SDS011;7188;56.070;12.698;2024-02-21T14:21:54;6.57;;;1.40;;
14209;SDS011;7188;56.070;12.698;2024-02-21T14:24:21;9.97;;;1.07;;
14209;SDS011;7188;56.070;12.698;2024-02-21T14:26:47;9.77;;;2.23;;
14209;SDS011;7188;56.070;12.698;2024-02-21T14:29:13;8.50;;;2.53;;
14209;SDS011;7188;56.070;12.698;2024-02-21T14:31:39;5.33;;;1.10;;
14209;SDS011;7188;56.070;12.698;2024-02-21T14:34:05;10.97;;;1.80;;
14209;SDS011;7188;56.070;12.698;2024-02-21T14:36:32;7.27;;;1.47;;
14209;SDS011;7188;56.070;12.698;2024-02-21T14:38:58;8.17;;;1.47;;
14209;SDS011;7188;56.070;12.698;2024-02-21T14:41:24;12.53;;;2.30;;
14209;SDS011;7188;56.070;12.698;2024-02-21T14:43:49;9.57;;;1.47;;
14209;SDS011;7188;56.070;12.698;2024-02-21T14:46:16;13.23;;;2.43;;
14209;SDS011;7188;56.070;12.698;2024-02-21T14:48:42;9.17;;;1.60;;
14209;SDS011;7188;56.070;12.698;2024-02-21T14:51:08;9.23;;;1.57;;
14209;SDS011;7188;56.070;12.698;2024-02-21T14:53:34;13.70;;;2.10;;
14209;SDS011;7188;56.070;12.698;2024-02-21T14:55:59;7.67;;;1.53;;
14209;SDS011;7188;56.070;12.698;2024-02-21T14:58:25;12.70;;;1.90;;
14209;SDS011;7188;56.070;12.698;2024-02-21T15:00:52;17.63;;;2.43;;
14209;SDS011;7188;56.070;12.698;2024-02-21T15:03:19;6.90;;;1.47;;
14209;SDS011;7188;56.070;12.698;2024-02-21T15:05:45;7.77;;;1.37;;
14209;SDS011;7188;56.070;12.698;2024-02-21T15:08:11;12.40;;;2.00;;
14209;SDS011;7188;56.070;12.698;2024-02-21T15:10:37;14.87;;;2.03;;
14209;SDS011;7188;56.070;12.698;2024-02-21T15:13:03;10.97;;;2.10;;
14209;SDS011;7188;56.070;12.698;2024-02-21T15:15:29;17.23;;;2.60;;
14209;SDS011;7188;56.070;12.698;2024-02-21T15:17:55;10.63;;;1.30;;
14209;SDS011;7188;56.070;12.698;2024-02-21T15:20:21;8.13;;;1.90;;
14209;SDS011;7188;56.070;12.698;2024-02-21T15:22:47;13.93;;;1.80;;
14209;SDS011;7188;56.070;12.698;2024-02-21T15:25:13;14.77;;;1.73;;
14209;SDS011;7188;56.070;12.698;2024-02-21T15:27:43;8.70;;;1.77;;
14209;SDS011;7188;56.070;12.698;2024-02-21T15:30:12;13.03;;;2.60;;
14209;SDS011;7188;56.070;12.698;2024-02-21T15:32:38;21.30;;;2.43;;
14209;SDS011;7188;56.070;12.698;2024-02-21T15:35:05;12.23;;;2.43;;
14209;SDS011;7188;56.070;12.698;2024-02-21T15:37:34;12.13;;;1.83;;
14209;SDS011;7188;56.070;12.698;2024-02-21T15:40:00;13.27;;;1.90;;
14209;SDS011;7188;56.070;12.698;2024-02-21T15:42:26;13.53;;;2.07;;
14209;SDS011;7188;56.070;12.698;2024-02-21T15:44:52;16.53;;;2.27;;
14209;SDS011;7188;56.070;12.698;2024-02-21T15:47:18;9.63;;;1.77;;
14209;SDS011;7188;56.070;12.698;2024-02-21T15:49:48;9.97;;;1.40;;
14209;SDS011;7188;56.070;12.698;2024-02-21T15:52:15;15.47;;;3.00;;
14209;SDS011;7188;56.070;12.698;2024-02-21T15:54:40;9.10;;;1.87;;
14209;SDS011;7188;56.070;12.698;2024-02-21T15:57:06;8.13;;;1.60;;
14209;SDS011;7188;56.070;12.698;2024-02-21T15:59:32;14.33;;;1.90;;
14209;SDS011;7188;56.070;12.698;2024-02-21T16:01:58;7.53;;;1.80;;
14209;SDS011;7188;56.070;12.698;2024-02-21T16:04:27;12.60;;;1.83;;
14209;SDS011;7188;56.070;12.698;2024-02-21T16:06:54;9.17;;;1.80;;
14209;SDS011;7188;56.070;12.698;2024-02-21T16:09:28;8.23;;;1.50;;
14209;SDS011;7188;56.070;12.698;2024-02-21T16:11:58;13.00;;;3.07;;
14209;SDS011;7188;56.070;12.698;2024-02-21T16:14:28;14.37;;;2.13;;
14209;SDS011;7188;56.070;12.698;2024-02-21T16:16:54;13.40;;;2.63;;
14209;SDS011;7188;56.070;12.698;2024-02-21T16:19:22;10.63;;;2.20;;
14209;SDS011;7188;56.070;12.698;2024-02-21T16:21:48;13.60;;;2.37;;
14209;SDS011;7188;56.070;12.698;2024-02-21T16:24:14;20.70;;;3.73;;
14209;SDS011;7188;56.070;12.698;2024-02-21T16:26:39;13.60;;;2.00;;
14209;SDS011;7188;56.070;12.698;2024-02-21T16:29:05;15.37;;;3.33;;
14209;SDS011;7188;56.070;12.698;2024-02-21T16:31:34;11.20;;;2.40;;
14209;SDS011;7188;56.070;12.698;2024-02-21T16:34:03;13.50;;;2.13;;
14209;SDS011;7188;56.070;12.698;2024-02-21T16:36:29;22.00;;;2.37;;
14209;SDS011;7188;56.070;12.698;2024-02-21T16:38:59;10.97;;;2.10;;
14209;SDS011;7188;56.070;12.698;2024-02-21T16:41:25;10.73;;;2.53;;
14209;SDS011;7188;56.070;12.698;2024-02-21T16:43:52;10.43;;;2.07;;
14209;SDS011;7188;56.070;12.698;2024-02-21T16:46:18;13.47;;;2.80;;
14209;SDS011;7188;56.070;12.698;2024-02-21T16:48:45;12.27;;;2.57;;
14209;SDS011;7188;56.070;12.698;2024-02-21T16:51:11;19.30;;;2.37;;
14209;SDS011;7188;56.070;12.698;2024-02-21T16:53:37;15.70;;;2.33;;
14209;SDS011;7188;56.070;12.698;2024-02-21T16:56:03;16.77;;;2.90;;
14209;SDS011;7188;56.070;12.698;2024-02-21T16:58:30;10.63;;;2.77;;
14209;SDS011;7188;56.070;12.698;2024-02-21T17:01:05;10.27;;;1.50;;
14209;SDS011;7188;56.070;12.698;2024-02-21T17:03:32;11.97;;;2.60;;
14209;SDS011;7188;56.070;12.698;2024-02-21T17:05:58;17.83;;;2.50;;
14209;SDS011;7188;56.070;12.698;2024-02-21T17:08:24;10.83;;;2.53;;
14209;SDS011;7188;56.070;12.698;2024-02-21T17:10:50;18.17;;;3.40;;
14209;SDS011;7188;56.070;12.698;2024-02-21T17:13:16;13.97;;;2.00;;
14209;SDS011;7188;56.070;12.698;2024-02-21T17:15:42;23.90;;;3.60;;